Time,TemperatureF,DewpointF,PressureIn,WindDirection,WindDirectionDegrees,WindSpeedMPH,WindSpeedGustMPH,Humidity,HourlyPrecipIn,Conditions,Clouds,dailyrainin,SoftwareType,DateUTC
2013-06-17 00:01:00,69.1,60.5,29.50,SSE,158,0.2,0.2,74,0.00,,,0.00,WUHU216HW,2013-06-17 04:01:00,
2013-06-17 00:06:00,69.1,60.5,29.50,SSE,158,0.2,0.2,74,0.00,,,0.00,WUHU216HW,2013-06-17 04:06:00,
2013-06-17 00:29:00,68.0,60.2,29.50,SSE,158,0.4,0.4,76,0.00,,,0.00,WUHU216HW,2013-06-17 04:29:00,
2013-06-17 00:34:00,68.0,60.2,29.50,SSE,158,0.4,0.4,76,0.00,,,0.00,WUHU216HW,2013-06-17 04:34:00,
2013-06-17 00:59:00,67.7,60.7,29.50,SSE,158,0.7,0.7,78,0.00,,,0.00,WUHU216HW,2013-06-17 04:59:00,
2013-06-17 01:04:00,67.7,60.7,29.50,SSE,158,0.7,0.7,78,0.00,,,0.00,WUHU216HW,2013-06-17 05:04:00,
2013-06-17 01:29:00,67.0,60.3,29.50,SSW,203,0.0,0.0,79,0.00,,,0.00,WUHU216HW,2013-06-17 05:29:00,
2013-06-17 01:34:00,67.0,60.3,29.50,SSW,203,0.0,0.0,79,0.00,,,0.00,WUHU216HW,2013-06-17 05:34:00,
2013-06-17 01:59:00,67.0,60.7,29.50,SSW,203,0.2,0.2,80,0.00,,,0.00,WUHU216HW,2013-06-17 05:59:00,
2013-06-17 02:04:00,67.0,60.7,29.50,SSW,203,0.2,0.2,80,0.00,,,0.00,WUHU216HW,2013-06-17 06:04:00,
2013-06-17 02:29:00,68.8,61.3,29.49,WNW,293,0.4,0.4,77,0.00,,,0.00,WUHU216HW,2013-06-17 06:29:00,
2013-06-17 02:34:00,68.8,61.3,29.49,WNW,293,0.4,0.4,77,0.00,,,0.00,WUHU216HW,2013-06-17 06:34:00,
2013-06-17 02:59:00,68.2,60.8,29.50,NW,315,0.0,0.0,77,0.00,,,0.00,WUHU216HW,2013-06-17 06:59:00,
2013-06-17 03:04:00,68.2,60.8,29.50,NW,315,0.0,0.0,77,0.00,,,0.00,WUHU216HW,2013-06-17 07:04:00,
2013-06-17 03:29:00,67.7,61.0,29.50,SSW,203,0.0,0.0,79,0.00,,,0.00,WUHU216HW,2013-06-17 07:29:00,
2013-06-17 03:34:00,67.7,61.0,29.50,SSW,203,0.0,0.0,79,0.00,,,0.00,WUHU216HW,2013-06-17 07:34:00,
2013-06-17 03:59:00,68.4,62.1,29.50,SSW,203,0.7,0.7,80,0.00,,,0.00,WUHU216HW,2013-06-17 07:59:00,
2013-06-17 04:04:00,68.4,62.1,29.50,SSW,203,0.7,0.7,80,0.00,,,0.00,WUHU216HW,2013-06-17 08:04:00,
2013-06-17 04:29:00,69.8,63.4,29.50,SW,225,1.1,1.1,80,0.00,,,0.00,WUHU216HW,2013-06-17 08:29:00,
2013-06-17 04:34:00,69.8,63.4,29.50,SW,225,1.1,1.1,80,0.00,,,0.00,WUHU216HW,2013-06-17 08:34:00,
2013-06-17 04:59:00,70.0,63.5,29.50,West,270,2.2,2.2,80,0.00,,,0.00,WUHU216HW,2013-06-17 08:59:00,
2013-06-17 05:04:00,70.0,63.5,29.50,West,270,2.2,2.2,80,0.00,,,0.00,WUHU216HW,2013-06-17 09:04:00,
2013-06-17 05:29:00,69.7,63.2,29.51,WNW,293,2.0,2.0,80,0.00,,,0.00,WUHU216HW,2013-06-17 09:29:00,
2013-06-17 05:34:00,69.7,63.2,29.51,WNW,293,2.0,2.0,80,0.00,,,0.00,WUHU216HW,2013-06-17 09:34:00,
2013-06-17 05:59:00,69.3,63.2,29.51,WNW,293,1.8,1.8,81,0.00,,,0.00,WUHU216HW,2013-06-17 09:59:00,
2013-06-17 06:04:00,69.3,63.2,29.51,WNW,293,1.8,1.8,81,0.00,,,0.00,WUHU216HW,2013-06-17 10:04:00,
2013-06-17 06:29:00,69.7,63.6,29.51,WSW,248,1.1,1.1,81,0.00,,,0.00,WUHU216HW,2013-06-17 10:29:00,
2013-06-17 06:34:00,69.7,63.6,29.51,WSW,248,1.1,1.1,81,0.00,,,0.00,WUHU216HW,2013-06-17 10:34:00,
2013-06-17 06:59:00,69.7,63.6,29.51,SSE,158,0.2,0.2,81,0.00,,,0.00,WUHU216HW,2013-06-17 10:59:00,
2013-06-17 07:04:00,69.7,63.6,29.51,SSE,158,0.2,0.2,81,0.00,,,0.00,WUHU216HW,2013-06-17 11:04:00,
2013-06-17 07:29:00,70.0,64.3,29.52,SSW,203,0.7,0.7,82,0.00,,,0.00,WUHU216HW,2013-06-17 11:29:00,
2013-06-17 07:34:00,70.0,64.3,29.52,SSW,203,0.7,0.7,82,0.00,,,0.00,WUHU216HW,2013-06-17 11:34:00,
2013-06-17 07:59:00,70.9,65.2,29.53,SSE,158,1.1,1.1,82,0.00,,,0.00,WUHU216HW,2013-06-17 11:59:00,
2013-06-17 08:04:00,70.9,65.2,29.53,SSE,158,1.1,1.1,82,0.00,,,0.00,WUHU216HW,2013-06-17 12:04:00,
2013-06-17 08:29:00,71.6,65.5,29.54,SSW,203,1.8,1.8,81,0.00,,,0.00,WUHU216HW,2013-06-17 12:29:00,
2013-06-17 08:34:00,71.6,65.5,29.54,SSW,203,1.8,1.8,81,0.00,,,0.00,WUHU216HW,2013-06-17 12:34:00,
2013-06-17 08:59:00,73.1,66.6,29.53,SSW,203,1.1,1.1,80,0.00,,,0.00,WUHU216HW,2013-06-17 12:59:00,
2013-06-17 09:04:00,73.1,66.6,29.53,SSW,203,1.1,1.1,80,0.00,,,0.00,WUHU216HW,2013-06-17 13:04:00,
2013-06-17 09:29:00,75.2,67.6,29.53,SSW,203,1.6,1.6,77,0.00,,,0.00,WUHU216HW,2013-06-17 13:29:00,
2013-06-17 09:34:00,75.2,67.6,29.53,SSW,203,1.6,1.6,77,0.00,,,0.00,WUHU216HW,2013-06-17 13:34:00,
2013-06-17 09:59:00,76.7,68.1,29.52,SSW,203,2.5,2.5,75,0.00,,,0.00,WUHU216HW,2013-06-17 13:59:00,
2013-06-17 10:04:00,76.7,68.1,29.52,SSW,203,2.5,2.5,75,0.00,,,0.00,WUHU216HW,2013-06-17 14:04:00,
2013-06-17 10:29:00,76.5,67.6,29.52,South,180,0.9,0.9,74,0.00,,,0.00,WUHU216HW,2013-06-17 14:29:00,
2013-06-17 10:34:00,76.5,67.6,29.52,South,180,0.9,0.9,74,0.00,,,0.00,WUHU216HW,2013-06-17 14:34:00,
2013-06-17 10:59:00,79.0,68.8,29.51,WNW,293,2.5,2.5,71,0.00,,,0.00,WUHU216HW,2013-06-17 14:59:00,
2013-06-17 11:04:00,79.0,68.8,29.51,WNW,293,2.5,2.5,71,0.00,,,0.00,WUHU216HW,2013-06-17 15:04:00,
2013-06-17 11:29:00,80.3,69.2,29.51,WNW,293,4.5,4.5,69,0.00,,,0.00,WUHU216HW,2013-06-17 15:29:00,
2013-06-17 11:34:00,80.3,69.2,29.51,WNW,293,4.5,4.5,69,0.00,,,0.00,WUHU216HW,2013-06-17 15:34:00,
2013-06-17 11:59:00,80.8,68.0,29.51,West,270,0.4,0.4,65,0.00,,,0.00,WUHU216HW,2013-06-17 15:59:00,
2013-06-17 12:04:00,80.8,68.0,29.51,West,270,0.4,0.4,65,0.00,,,0.00,WUHU216HW,2013-06-17 16:04:00,
2013-06-17 17:59:00,87.7,69.5,29.45,North,0,1.8,1.8,55,0.00,,,0.00,WUHU216HW,2013-06-17 21:59:00,
2013-06-17 18:04:00,87.7,70.0,29.45,North,0,0.7,1.8,56,0.00,,,0.00,WUHU216HW,2013-06-17 22:04:00,
2013-06-17 18:09:00,87.7,70.0,29.45,North,0,0.7,1.8,56,0.00,,,0.00,WUHU216HW,2013-06-17 22:09:00,
2013-06-17 18:31:00,85.0,68.1,29.45,NNW,338,0.4,0.4,57,0.00,,,0.00,WUHU216HW,2013-06-17 22:31:00,
2013-06-17 18:36:00,85.0,68.1,29.45,NNW,338,0.4,0.4,57,0.00,,,0.00,WUHU216HW,2013-06-17 22:36:00,
2013-06-17 19:00:00,83.5,69.1,29.45,NNE,23,1.6,1.6,62,0.00,,,0.00,WUHU216HW,2013-06-17 23:00:00,
2013-06-17 19:05:00,83.5,69.1,29.45,NNE,23,1.6,1.6,62,0.00,,,0.00,WUHU216HW,2013-06-17 23:05:00,
2013-06-17 19:30:00,82.1,68.1,29.45,NE,45,1.8,1.8,63,0.00,,,0.00,WUHU216HW,2013-06-17 23:30:00,
2013-06-17 19:35:00,82.1,68.1,29.45,NE,45,1.8,1.8,63,0.00,,,0.00,WUHU216HW,2013-06-17 23:35:00,
2013-06-17 20:00:00,80.3,67.9,29.45,NNE,23,0.0,0.0,66,0.00,,,0.00,WUHU216HW,2013-06-18 00:00:00,
2013-06-17 20:05:00,80.3,67.9,29.45,NNE,23,0.0,0.0,66,0.00,,,0.00,WUHU216HW,2013-06-18 00:05:00,
2013-06-17 20:30:00,78.3,66.9,29.46,ENE,68,0.0,0.0,68,0.00,,,0.00,WUHU216HW,2013-06-18 00:30:00,
2013-06-17 20:35:00,78.3,66.9,29.46,ENE,68,0.0,0.0,68,0.00,,,0.00,WUHU216HW,2013-06-18 00:35:00,
2013-06-17 21:00:00,76.7,66.6,29.47,East,90,0.0,0.0,71,0.00,,,0.00,WUHU216HW,2013-06-18 01:00:00,
2013-06-17 21:05:00,76.7,66.6,29.47,East,90,0.0,0.0,71,0.00,,,0.00,WUHU216HW,2013-06-18 01:05:00,
2013-06-17 21:30:00,75.2,66.8,29.47,SE,135,0.0,0.0,75,0.00,,,0.00,WUHU216HW,2013-06-18 01:30:00,
2013-06-17 21:35:00,75.2,66.8,29.47,SE,135,0.0,0.0,75,0.00,,,0.00,WUHU216HW,2013-06-18 01:35:00,
2013-06-17 22:00:00,74.9,66.4,29.49,SE,135,0.2,0.2,75,0.00,,,0.00,WUHU216HW,2013-06-18 02:00:00,
2013-06-17 22:05:00,74.9,66.4,29.49,SE,135,0.2,0.2,75,0.00,,,0.00,WUHU216HW,2013-06-18 02:05:00,
2013-06-17 22:30:00,74.5,66.5,29.50,SE,135,0.0,0.0,76,0.00,,,0.00,WUHU216HW,2013-06-18 02:30:00,
2013-06-17 22:35:00,74.5,66.5,29.50,SE,135,0.0,0.0,76,0.00,,,0.00,WUHU216HW,2013-06-18 02:35:00,
2013-06-17 23:00:00,74.0,66.0,29.50,SE,135,0.0,0.0,76,0.00,,,0.00,WUHU216HW,2013-06-18 03:00:00,
2013-06-17 23:05:00,74.0,66.0,29.50,SE,135,0.0,0.0,76,0.00,,,0.00,WUHU216HW,2013-06-18 03:05:00,
2013-06-17 23:30:00,73.4,65.8,29.49,SE,135,0.0,0.0,77,0.00,,,0.00,WUHU216HW,2013-06-18 03:30:00,
2013-06-17 23:35:00,73.4,65.8,29.49,SE,135,0.0,0.0,77,0.00,,,0.00,WUHU216HW,2013-06-18 03:35:00,